sensor_id;sensor_type;location;lat;lon;timestamp;pressure;altitude;pressure_sealevel;temperature;humidity
49801;BME280;35698;50.232;30.540;2022-09-29T00:00:15;99526.19;;;15.29;61.31
49801;BME280;35698;50.232;30.540;2022-09-29T00:01:18;99531.38;;;15.31;60.92
49801;BME280;35698;50.232;30.540;2022-09-29T00:02:21;99538.95;;;15.35;60.69
49801;BME280;35698;50.232;30.540;2022-09-29T00:03:25;99534.20;;;15.39;60.08
49801;BME280;35698;50.232;30.540;2022-09-29T00:04:36;99532.55;;;15.48;60.13
49801;BME280;35698;50.232;30.540;2022-09-29T00:05:48;99526.96;;;15.51;60.09
49801;BME280;35698;50.232;30.540;2022-09-29T00:06:51;99533.45;;;15.58;59.68
49801;BME280;35698;50.232;30.540;2022-09-29T00:07:55;99538.42;;;15.41;59.76
49801;BME280;35698;50.232;30.540;2022-09-29T00:09:25;99537.88;;;15.48;59.62
49801;BME280;35698;50.232;30.540;2022-09-29T00:10:29;99534.10;;;15.50;59.37
49801;BME280;35698;50.232;30.540;2022-09-29T00:11:40;99538.91;;;15.66;59.30
49801;BME280;35698;50.232;30.540;2022-09-29T00:12:43;99533.67;;;15.45;59.50
49801;BME280;35698;50.232;30.540;2022-09-29T00:13:46;99535.86;;;15.30;59.92
49801;BME280;35698;50.232;30.540;2022-09-29T00:14:58;99527.53;;;15.54;59.67
49801;BME280;35698;50.232;30.540;2022-09-29T00:16:02;99536.33;;;15.45;59.59
49801;BME280;35698;50.232;30.540;2022-09-29T00:17:06;99541.05;;;15.32;59.91
49801;BME280;35698;50.232;30.540;2022-09-29T00:18:10;99540.03;;;15.23;60.14
49801;BME280;35698;50.232;30.540;2022-09-29T00:19:15;99545.93;;;15.27;60.02
49801;BME280;35698;50.232;30.540;2022-09-29T00:20:26;99545.97;;;15.36;60.14
49801;BME280;35698;50.232;30.540;2022-09-29T00:21:30;99547.48;;;15.29;59.92
49801;BME280;35698;50.232;30.540;2022-09-29T00:22:33;99533.33;;;15.29;59.84
49801;BME280;35698;50.232;30.540;2022-09-29T00:23:37;99545.80;;;15.28;60.04
49801;BME280;35698;50.232;30.540;2022-09-29T00:24:48;99549.64;;;15.45;59.99
49801;BME280;35698;50.232;30.540;2022-09-29T00:26:10;99541.22;;;15.40;59.08
49801;BME280;35698;50.232;30.540;2022-09-29T00:27:15;99551.28;;;15.36;58.95
49801;BME280;35698;50.232;30.540;2022-09-29T00:28:26;99552.03;;;15.48;58.81
49801;BME280;35698;50.232;30.540;2022-09-29T00:29:30;99548.99;;;15.22;58.86
49801;BME280;35698;50.232;30.540;2022-09-29T00:30:41;99547.65;;;15.37;59.20
49801;BME280;35698;50.232;30.540;2022-09-29T00:31:44;99547.53;;;15.08;59.71
49801;BME280;35698;50.232;30.540;2022-09-29T00:32:47;99546.53;;;14.79;61.13
49801;BME280;35698;50.232;30.540;2022-09-29T00:33:51;99554.74;;;14.66;62.08
49801;BME280;35698;50.232;30.540;2022-09-29T00:35:03;99553.25;;;15.04;61.37
49801;BME280;35698;50.232;30.540;2022-09-29T00:36:10;99557.59;;;15.05;60.73
49801;BME280;35698;50.232;30.540;2022-09-29T00:37:21;99561.01;;;15.17;60.39
49801;BME280;35698;50.232;30.540;2022-09-29T00:38:25;99562.25;;;15.13;60.11
49801;BME280;35698;50.232;30.540;2022-09-29T00:39:55;99564.55;;;15.27;59.64
49801;BME280;35698;50.232;30.540;2022-09-29T00:40:59;99561.84;;;15.17;59.62
49801;BME280;35698;50.232;30.540;2022-09-29T00:42:11;99557.14;;;15.30;59.08
49801;BME280;35698;50.232;30.540;2022-09-29T00:43:21;99565.62;;;15.15;58.65
49801;BME280;35698;50.232;30.540;2022-09-29T00:45:56;99567.57;;;15.13;58.25
49801;BME280;35698;50.232;30.540;2022-09-29T00:47:08;99568.45;;;15.23;57.77
49801;BME280;35698;50.232;30.540;2022-09-29T00:48:16;99567.84;;;15.09;57.84
49801;BME280;35698;50.232;30.540;2022-09-29T00:49:44;99573.47;;;15.16;57.80
49801;BME280;35698;50.232;30.540;2022-09-29T00:50:50;99569.47;;;15.01;57.85
49801;BME280;35698;50.232;30.540;2022-09-29T00:52:07;99567.97;;;15.08;57.87
49801;BME280;35698;50.232;30.540;2022-09-29T00:53:13;99570.70;;;14.97;58.05
49801;BME280;35698;50.232;30.540;2022-09-29T00:54:19;99569.02;;;14.96;57.90
49801;BME280;35698;50.232;30.540;2022-09-29T00:55:33;99572.00;;;15.02;58.25
49801;BME280;35698;50.232;30.540;2022-09-29T00:56:40;99576.23;;;14.84;59.39
49801;BME280;35698;50.232;30.540;2022-09-29T01:00:28;99587.51;;;14.97;60.42
49801;BME280;35698;50.232;30.540;2022-09-29T01:01:32;99590.69;;;14.91;60.14
49801;BME280;35698;50.232;30.540;2022-09-29T01:02:38;99590.50;;;14.83;60.63
49801;BME280;35698;50.232;30.540;2022-09-29T01:03:44;99598.54;;;14.93;59.49
49801;BME280;35698;50.232;30.540;2022-09-29T01:04:50;99602.43;;;14.89;59.85
49801;BME280;35698;50.232;30.540;2022-09-29T01:06:13;99603.66;;;15.05;59.20
49801;BME280;35698;50.232;30.540;2022-09-29T01:07:17;99597.44;;;14.95;58.68
49801;BME280;35698;50.232;30.540;2022-09-29T01:09:53;99608.71;;;15.08;58.31
49801;BME280;35698;50.232;30.540;2022-09-29T01:10:59;99604.83;;;14.92;58.31
49801;BME280;35698;50.232;30.540;2022-09-29T01:12:04;99601.59;;;14.88;58.26
49801;BME280;35698;50.232;30.540;2022-09-29T01:13:09;99596.53;;;14.85;58.30
49801;BME280;35698;50.232;30.540;2022-09-29T01:14:12;99600.16;;;14.84;58.28
49801;BME280;35698;50.232;30.540;2022-09-29T01:15:24;99600.41;;;15.02;58.12
49801;BME280;35698;50.232;30.540;2022-09-29T01:16:29;99608.33;;;14.92;58.70
49801;BME280;35698;50.232;30.540;2022-09-29T01:17:40;99606.84;;;14.99;58.39
49801;BME280;35698;50.232;30.540;2022-09-29T01:18:45;99611.64;;;14.85;58.42
49801;BME280;35698;50.232;30.540;2022-09-29T01:20:18;99609.05;;;14.94;58.56
49801;BME280;35698;50.232;30.540;2022-09-29T01:21:35;99612.36;;;14.87;58.71
49801;BME280;35698;50.232;30.540;2022-09-29T01:30:51;99621.83;;;15.00;58.74
49801;BME280;35698;50.232;30.540;2022-09-29T01:33:22;99625.78;;;14.85;58.81
49801;BME280;35698;50.232;30.540;2022-09-29T01:37:44;99613.97;;;14.99;58.71
49801;BME280;35698;50.232;30.540;2022-09-29T01:40:45;99621.11;;;14.98;58.86
49801;BME280;35698;50.232;30.540;2022-09-29T01:41:58;99616.17;;;15.15;58.78
49801;BME280;35698;50.232;30.540;2022-09-29T01:43:27;99622.02;;;15.08;58.49
49801;BME280;35698;50.232;30.540;2022-09-29T01:44:56;99622.64;;;15.22;58.40
49801;BME280;35698;50.232;30.540;2022-09-29T01:46:04;99618.11;;;15.13;58.36
49801;BME280;35698;50.232;30.540;2022-09-29T01:47:11;99623.56;;;15.11;58.15
49801;BME280;35698;50.232;30.540;2022-09-29T01:48:26;99616.48;;;15.21;58.16
49801;BME280;35698;50.232;30.540;2022-09-29T01:49:33;99619.94;;;15.12;58.00
49801;BME280;35698;50.232;30.540;2022-09-29T01:50:47;99619.72;;;15.25;57.86
49801;BME280;35698;50.232;30.540;2022-09-29T01:53:12;99630.23;;;15.26;58.38
49801;BME280;35698;50.232;30.540;2022-09-29T01:54:29;99636.00;;;15.31;58.06
49801;BME280;35698;50.232;30.540;2022-09-29T01:55:34;99630.89;;;15.19;58.56
49801;BME280;35698;50.232;30.540;2022-09-29T01:56:52;99636.00;;;15.31;58.84
49801;BME280;35698;50.232;30.540;2022-09-29T01:58:08;99632.31;;;15.23;58.88
49801;BME280;35698;50.232;30.540;2022-09-29T01:59:27;99632.81;;;15.37;58.67
49801;BME280;35698;50.232;30.540;2022-09-29T02:00:31;99611.87;;;15.23;58.61
49801;BME280;35698;50.232;30.540;2022-09-29T02:02:02;99636.23;;;15.49;58.64
49801;BME280;35698;50.232;30.540;2022-09-29T02:04:36;99639.02;;;15.48;57.70
49801;BME280;35698;50.232;30.540;2022-09-29T02:05:49;99636.70;;;15.64;57.56
49801;BME280;35698;50.232;30.540;2022-09-29T02:07:05;99638.26;;;15.66;56.88
49801;BME280;35698;50.232;30.540;2022-09-29T02:08:20;99641.63;;;15.68;56.57
49801;BME280;35698;50.232;30.540;2022-09-29T02:09:27;99642.70;;;15.56;56.34
49801;BME280;35698;50.232;30.540;2022-09-29T02:10:50;99645.41;;;15.66;56.20
49801;BME280;35698;50.232;30.540;2022-09-29T02:12:03;99640.08;;;15.66;55.93
49801;BME280;35698;50.232;30.540;2022-09-29T02:13:08;99638.62;;;15.52;56.10
49801;BME280;35698;50.232;30.540;2022-09-29T02:14:23;99648.20;;;15.64;56.14
49801;BME280;35698;50.232;30.540;2022-09-29T02:15:30;99642.97;;;15.53;56.17
49801;BME280;35698;50.232;30.540;2022-09-29T02:18:00;99650.29;;;15.61;56.40
49801;BME280;35698;50.232;30.540;2022-09-29T02:19:16;99647.19;;;15.56;56.28
49801;BME280;35698;50.232;30.540;2022-09-29T02:20:28;99656.90;;;15.66;56.34
49801;BME280;35698;50.232;30.540;2022-09-29T02:21:31;99643.81;;;15.54;56.48
49801;BME280;35698;50.232;30.540;2022-09-29T02:22:42;99652.99;;;15.70;56.41
49801;BME280;35698;50.232;30.540;2022-09-29T02:23:46;99650.69;;;15.56;55.97
49801;BME280;35698;50.232;30.540;2022-09-29T02:24:58;99644.30;;;15.68;55.68
49801;BME280;35698;50.232;30.540;2022-09-29T02:26:02;99646.24;;;15.57;55.74
49801;BME280;35698;50.232;30.540;2022-09-29T02:27:14;99654.23;;;15.66;55.48
49801;BME280;35698;50.232;30.540;2022-09-29T02:28:18;99650.11;;;15.53;55.38
49801;BME280;35698;50.232;30.540;2022-09-29T02:29:31;99659.70;;;15.65;55.42
49801;BME280;35698;50.232;30.540;2022-09-29T02:30:35;99655.44;;;15.53;55.47
49801;BME280;35698;50.232;30.540;2022-09-29T02:31:39;99663.42;;;15.53;55.46
49801;BME280;35698;50.232;30.540;2022-09-29T02:32:44;99654.73;;;15.51;55.09
49801;BME280;35698;50.232;30.540;2022-09-29T02:34:17;99653.62;;;15.53;54.91
49801;BME280;35698;50.232;30.540;2022-09-29T02:35:23;99653.97;;;15.39;55.05
49801;BME280;35698;50.232;30.540;2022-09-29T02:36:57;99653.30;;;15.47;55.15
49801;BME280;35698;50.232;30.540;2022-09-29T02:42:12;99648.52;;;15.40;55.58
49801;BME280;35698;50.232;30.540;2022-09-29T02:48:18;99637.05;;;15.19;55.55
49801;BME280;35698;50.232;30.540;2022-09-29T02:59:23;99644.20;;;14.98;55.71
49801;BME280;35698;50.232;30.540;2022-09-29T03:00:26;99655.03;;;14.85;55.52
49801;BME280;35698;50.232;30.540;2022-09-29T03:01:49;99648.48;;;14.89;55.71
49801;BME280;35698;50.232;30.540;2022-09-29T03:02:53;99646.14;;;14.75;55.69
49801;BME280;35698;50.232;30.540;2022-09-29T03:04:04;99650.94;;;14.81;55.64
49801;BME280;35698;50.232;30.540;2022-09-29T03:05:09;99648.75;;;14.65;55.65
49801;BME280;35698;50.232;30.540;2022-09-29T03:06:32;99644.74;;;14.71;55.75
49801;BME280;35698;50.232;30.540;2022-09-29T03:07:36;99644.08;;;14.58;56.00
49801;BME280;35698;50.232;30.540;2022-09-29T03:08:39;99651.92;;;14.59;56.22
49801;BME280;35698;50.232;30.540;2022-09-29T03:09:43;99651.08;;;14.59;56.44
49801;BME280;35698;50.232;30.540;2022-09-29T03:10:46;99647.58;;;14.58;56.51
49801;BME280;35698;50.232;30.540;2022-09-29T03:11:57;99645.72;;;14.70;56.54
49801;BME280;35698;50.232;30.540;2022-09-29T03:13:00;99650.11;;;14.60;56.63
49801;BME280;35698;50.232;30.540;2022-09-29T03:14:04;99651.20;;;14.57;56.69
49801;BME280;35698;50.232;30.540;2022-09-29T03:15:15;99649.77;;;14.74;56.82
49801;BME280;35698;50.232;30.540;2022-09-29T03:16:19;99649.01;;;14.62;56.38
49801;BME280;35698;50.232;30.540;2022-09-29T03:17:22;99651.54;;;14.64;56.30
49801;BME280;35698;50.232;30.540;2022-09-29T03:18:26;99656.02;;;14.63;56.15
49801;BME280;35698;50.232;30.540;2022-09-29T03:19:29;99658.92;;;14.60;56.19
49801;BME280;35698;50.232;30.540;2022-09-29T03:20:33;99655.17;;;14.63;56.16
49801;BME280;35698;50.232;30.540;2022-09-29T03:21:44;99648.80;;;14.75;56.27
49801;BME280;35698;50.232;30.540;2022-09-29T03:22:47;99651.28;;;14.67;56.12
49801;BME280;35698;50.232;30.540;2022-09-29T03:24:10;99656.60;;;14.67;56.13
49801;BME280;35698;50.232;30.540;2022-09-29T03:25:14;99662.63;;;14.69;56.10
49801;BME280;35698;50.232;30.540;2022-09-29T03:26:18;99658.29;;;14.68;56.10
49801;BME280;35698;50.232;30.540;2022-09-29T03:27:29;99656.13;;;14.83;56.18
49801;BME280;35698;50.232;30.540;2022-09-29T03:28:32;99651.75;;;14.72;56.31
49801;BME280;35698;50.232;30.540;2022-09-29T03:29:43;99657.69;;;14.85;56.19
49801;BME280;35698;50.232;30.540;2022-09-29T03:30:46;99659.44;;;14.75;56.12
49801;BME280;35698;50.232;30.540;2022-09-29T03:31:50;99655.09;;;14.74;56.27
49801;BME280;35698;50.232;30.540;2022-09-29T03:33:01;99663.72;;;14.87;56.17
49801;BME280;35698;50.232;30.540;2022-09-29T03:34:05;99656.77;;;14.75;56.09
49801;BME280;35698;50.232;30.540;2022-09-29T03:35:16;99663.01;;;14.85;56.46
49801;BME280;35698;50.232;30.540;2022-09-29T03:36:20;99663.22;;;14.72;56.66
49801;BME280;35698;50.232;30.540;2022-09-29T03:37:31;99660.09;;;14.88;56.78
49801;BME280;35698;50.232;30.540;2022-09-29T03:38:35;99663.65;;;14.78;56.59
49801;BME280;35698;50.232;30.540;2022-09-29T03:39:38;99669.55;;;14.81;56.58
49801;BME280;35698;50.232;30.540;2022-09-29T03:40:49;99668.14;;;14.98;56.31
49801;BME280;35698;50.232;30.540;2022-09-29T03:41:53;99669.38;;;14.94;56.08
49801;BME280;35698;50.232;30.540;2022-09-29T03:42:56;99666.13;;;14.90;55.85
49801;BME280;35698;50.232;30.540;2022-09-29T03:44:07;99666.78;;;15.03;55.90
49801;BME280;35698;50.232;30.540;2022-09-29T03:45:11;99676.38;;;14.95;55.92
49801;BME280;35698;50.232;30.540;2022-09-29T03:46:22;99670.87;;;15.07;55.56
49801;BME280;35698;50.232;30.540;2022-09-29T03:47:25;99677.22;;;14.95;55.60
49801;BME280;35698;50.232;30.540;2022-09-29T03:48:37;99676.19;;;15.07;55.53
49801;BME280;35698;50.232;30.540;2022-09-29T03:49:40;99678.78;;;14.98;55.53
49801;BME280;35698;50.232;30.540;2022-09-29T03:50:51;99681.25;;;15.11;55.27
49801;BME280;35698;50.232;30.540;2022-09-29T03:51:54;99679.63;;;14.98;55.40
49801;BME280;35698;50.232;30.540;2022-09-29T03:53:05;99677.88;;;15.08;55.32
49801;BME280;35698;50.232;30.540;2022-09-29T03:54:09;99682.28;;;14.98;55.43
49801;BME280;35698;50.232;30.540;2022-09-29T03:55:13;99687.73;;;14.97;55.38
49801;BME280;35698;50.232;30.540;2022-09-29T03:56:16;99682.41;;;14.97;55.54
49801;BME280;35698;50.232;30.540;2022-09-29T03:57:28;99690.33;;;15.08;55.42
49801;BME280;35698;50.232;30.540;2022-09-29T03:58:31;99692.20;;;14.96;55.31
49801;BME280;35698;50.232;30.540;2022-09-29T03:59:34;99699.34;;;14.96;55.32
49801;BME280;35698;50.232;30.540;2022-09-29T04:00:47;99694.80;;;15.07;55.42
49801;BME280;35698;50.232;30.540;2022-09-29T04:01:51;99700.05;;;14.98;55.31
49801;BME280;35698;50.232;30.540;2022-09-29T04:02:54;99693.17;;;14.95;55.36
49801;BME280;35698;50.232;30.540;2022-09-29T04:04:05;99701.55;;;15.12;55.16
49801;BME280;35698;50.232;30.540;2022-09-29T04:05:09;99700.77;;;15.00;55.28
49801;BME280;35698;50.232;30.540;2022-09-29T04:06:20;99696.95;;;15.14;55.54
49801;BME280;35698;50.232;30.540;2022-09-29T04:07:23;99694.22;;;15.04;55.44
49801;BME280;35698;50.232;30.540;2022-09-29T04:08:26;99697.73;;;15.04;55.22
49801;BME280;35698;50.232;30.540;2022-09-29T04:09:30;99697.47;;;15.07;55.34
49801;BME280;35698;50.232;30.540;2022-09-29T04:10:41;99698.12;;;15.21;55.09
49801;BME280;35698;50.232;30.540;2022-09-29T04:11:44;99698.64;;;15.15;55.06
49801;BME280;35698;50.232;30.540;2022-09-29T04:12:48;99696.23;;;15.12;55.38
49801;BME280;35698;50.232;30.540;2022-09-29T04:13:51;99700.45;;;15.14;55.50
49801;BME280;35698;50.232;30.540;2022-09-29T04:15:03;99699.16;;;15.29;55.27
49801;BME280;35698;50.232;30.540;2022-09-29T04:16:07;99697.86;;;15.24;55.14
49801;BME280;35698;50.232;30.540;2022-09-29T04:17:18;99695.26;;;15.33;55.15
49801;BME280;35698;50.232;30.540;2022-09-29T04:18:21;99704.16;;;15.23;55.14
49801;BME280;35698;50.232;30.540;2022-09-29T04:19:25;99704.61;;;15.28;55.04
49801;BME280;35698;50.232;30.540;2022-09-29T04:20:38;99703.30;;;15.43;54.96
49801;BME280;35698;50.232;30.540;2022-09-29T04:21:42;99705.32;;;15.30;55.23
49801;BME280;35698;50.232;30.540;2022-09-29T04:22:53;99704.02;;;15.45;55.14
49801;BME280;35698;50.232;30.540;2022-09-29T04:23:56;99705.06;;;15.33;55.18
49801;BME280;35698;50.232;30.540;2022-09-29T04:25:00;99710.12;;;15.36;55.07
49801;BME280;35698;50.232;30.540;2022-09-29T04:26:11;99716.08;;;15.49;54.93
49801;BME280;35698;50.232;30.540;2022-09-29T04:27:15;99707.45;;;15.36;54.96
49801;BME280;35698;50.232;30.540;2022-09-29T04:28:26;99711.60;;;15.50;54.94
49801;BME280;35698;50.232;30.540;2022-09-29T04:29:30;99716.61;;;15.43;54.85
49801;BME280;35698;50.232;30.540;2022-09-29T04:30:41;99712.89;;;15.55;55.00
49801;BME280;35698;50.232;30.540;2022-09-29T04:31:44;99719.72;;;15.48;54.98
49801;BME280;35698;50.232;30.540;2022-09-29T04:32:55;99719.51;;;15.61;54.98
49801;BME280;35698;50.232;30.540;2022-09-29T04:33:58;99723.67;;;15.54;54.86
49801;BME280;35698;50.232;30.540;2022-09-29T04:35:02;99713.87;;;15.54;54.61
49801;BME280;35698;50.232;30.540;2022-09-29T04:36:13;99724.17;;;15.68;54.55
49801;BME280;35698;50.232;30.540;2022-09-29T04:37:17;99720.88;;;15.55;54.39
49801;BME280;35698;50.232;30.540;2022-09-29T04:38:21;99726.34;;;15.54;54.38
49801;BME280;35698;50.232;30.540;2022-09-29T04:39:24;99725.49;;;15.53;54.41
49801;BME280;35698;50.232;30.540;2022-09-29T04:40:35;99722.75;;;15.64;54.40
49801;BME280;35698;50.232;30.540;2022-09-29T04:41:39;99713.29;;;15.51;54.52
49801;BME280;35698;50.232;30.540;2022-09-29T04:42:50;99716.45;;;15.65;54.60
49801;BME280;35698;50.232;30.540;2022-09-29T04:43:54;99716.53;;;15.54;54.59
49801;BME280;35698;50.232;30.540;2022-09-29T04:44:57;99721.02;;;15.54;54.52
49801;BME280;35698;50.232;30.540;2022-09-29T04:46:03;99717.38;;;15.55;54.37
49801;BME280;35698;50.232;30.540;2022-09-29T04:47:18;99719.11;;;15.65;54.33
49801;BME280;35698;50.232;30.540;2022-09-29T04:48:21;99719.72;;;15.48;54.36
49801;BME280;35698;50.232;30.540;2022-09-29T04:49:25;99724.20;;;15.48;54.47
49801;BME280;35698;50.232;30.540;2022-09-29T04:50:36;99710.76;;;15.49;54.43
49801;BME280;35698;50.232;30.540;2022-09-29T04:51:40;99726.02;;;15.47;54.65
49801;BME280;35698;50.232;30.540;2022-09-29T04:52:51;99724.28;;;15.57;54.55
49801;BME280;35698;50.232;30.540;2022-09-29T04:53:54;99727.70;;;15.48;54.59
49801;BME280;35698;50.232;30.540;2022-09-29T04:54:58;99729.52;;;15.48;54.51
49801;BME280;35698;50.232;30.540;2022-09-29T04:56:06;99726.73;;;15.49;54.64
49801;BME280;35698;50.232;30.540;2022-09-29T04:57:17;99722.88;;;15.63;54.71
49801;BME280;35698;50.232;30.540;2022-09-29T04:58:20;99718.48;;;15.52;54.76
49801;BME280;35698;50.232;30.540;2022-09-29T04:59:32;99724.05;;;15.70;54.67
49801;BME280;35698;50.232;30.540;2022-09-29T05:00:35;99717.02;;;15.59;54.51
49801;BME280;35698;50.232;30.540;2022-09-29T05:01:39;99716.84;;;15.61;54.51
49801;BME280;35698;50.232;30.540;2022-09-29T05:02:49;99721.56;;;15.78;54.57
49801;BME280;35698;50.232;30.540;2022-09-29T05:03:53;99720.41;;;15.71;54.43
49801;BME280;35698;50.232;30.540;2022-09-29T05:05:06;99715.43;;;15.87;54.54
49801;BME280;35698;50.232;30.540;2022-09-29T05:06:10;99717.92;;;15.79;54.54
49801;BME280;35698;50.232;30.540;2022-09-29T05:07:14;99719.34;;;15.83;54.60
49801;BME280;35698;50.232;30.540;2022-09-29T05:08:17;99714.32;;;15.90;54.65
49801;BME280;35698;50.232;30.540;2022-09-29T05:09:20;99718.13;;;15.97;54.60
49801;BME280;35698;50.232;30.540;2022-09-29T05:10:31;99718.47;;;16.13;54.46
49801;BME280;35698;50.232;30.540;2022-09-29T05:11:35;99721.81;;;16.05;54.36
49801;BME280;35698;50.232;30.540;2022-09-29T05:12:47;99724.81;;;16.22;54.21
49801;BME280;35698;50.232;30.540;2022-09-29T05:13:51;99725.76;;;16.11;54.15
49801;BME280;35698;50.232;30.540;2022-09-29T05:15:03;99727.61;;;16.20;53.87
49801;BME280;35698;50.232;30.540;2022-09-29T05:16:26;99726.03;;;16.08;54.04
49801;BME280;35698;50.232;30.540;2022-09-29T05:17:30;99729.53;;;16.09;53.93
49801;BME280;35698;50.232;30.540;2022-09-29T05:18:41;99735.47;;;16.22;54.12
49801;BME280;35698;50.232;30.540;2022-09-29T05:19:49;99734.59;;;16.12;54.25
49801;BME280;35698;50.232;30.540;2022-09-29T05:21:08;99738.44;;;16.28;54.31
49801;BME280;35698;50.232;30.540;2022-09-29T05:22:14;99735.60;;;16.20;54.40
49801;BME280;35698;50.232;30.540;2022-09-29T05:23:27;99731.30;;;16.38;54.11
49801;BME280;35698;50.232;30.540;2022-09-29T05:24:30;99732.13;;;16.29;54.10
49801;BME280;35698;50.232;30.540;2022-09-29T05:25:41;99728.94;;;16.45;53.94
49801;BME280;35698;50.232;30.540;2022-09-29T05:26:45;99726.95;;;16.37;53.99
49801;BME280;35698;50.232;30.540;2022-09-29T05:27:56;99729.06;;;16.53;54.37
49801;BME280;35698;50.232;30.540;2022-09-29T05:28:59;99733.83;;;16.50;54.40
49801;BME280;35698;50.232;30.540;2022-09-29T05:30:11;99732.77;;;16.71;54.35
49801;BME280;35698;50.232;30.540;2022-09-29T05:31:15;99730.38;;;16.68;54.33
49801;BME280;35698;50.232;30.540;2022-09-29T05:32:18;99734.45;;;16.73;54.09
49801;BME280;35698;50.232;30.540;2022-09-29T05:33:22;99729.55;;;16.78;53.90
49801;BME280;35698;50.232;30.540;2022-09-29T05:34:33;99734.74;;;16.98;53.57
49801;BME280;35698;50.232;30.540;2022-09-29T05:35:36;99729.97;;;16.92;53.48
49801;BME280;35698;50.232;30.540;2022-09-29T05:36:40;99728.42;;;16.99;53.26
49801;BME280;35698;50.232;30.540;2022-09-29T05:37:51;99730.67;;;17.14;52.98
49801;BME280;35698;50.232;30.540;2022-09-29T05:38:54;99743.17;;;17.03;53.02
49801;BME280;35698;50.232;30.540;2022-09-29T05:40:01;99738.39;;;17.07;53.01
49801;BME280;35698;50.232;30.540;2022-09-29T05:41:06;99739.09;;;17.09;53.02
49801;BME280;35698;50.232;30.540;2022-09-29T05:42:17;99733.89;;;17.17;53.10
49801;BME280;35698;50.232;30.540;2022-09-29T05:43:21;99745.70;;;17.15;53.16
49801;BME280;35698;50.232;30.540;2022-09-29T05:44:32;99747.47;;;17.33;53.10
49801;BME280;35698;50.232;30.540;2022-09-29T05:45:36;99747.66;;;17.22;53.00
49801;BME280;35698;50.232;30.540;2022-09-29T05:46:47;99740.16;;;17.35;52.79
49801;BME280;35698;50.232;30.540;2022-09-29T05:47:51;99748.22;;;17.26;52.80
49801;BME280;35698;50.232;30.540;2022-09-29T05:49:02;99747.05;;;17.38;52.92
49801;BME280;35698;50.232;30.540;2022-09-29T05:50:06;99745.27;;;17.29;53.23
49801;BME280;35698;50.232;30.540;2022-09-29T05:52:27;99755.19;;;17.46;53.10
49801;BME280;35698;50.232;30.540;2022-09-29T05:53:31;99760.53;;;17.36;53.24
49801;BME280;35698;50.232;30.540;2022-09-29T05:54:34;99756.59;;;17.41;53.37
49801;BME280;35698;50.232;30.540;2022-09-29T05:55:45;99753.19;;;17.58;53.30
49801;BME280;35698;50.232;30.540;2022-09-29T05:56:49;99757.16;;;17.44;53.24
49801;BME280;35698;50.232;30.540;2022-09-29T05:57:52;99748.86;;;17.47;53.11
49801;BME280;35698;50.232;30.540;2022-09-29T05:59:03;99753.75;;;17.61;53.16
49801;BME280;35698;50.232;30.540;2022-09-29T06:00:07;99757.69;;;17.57;53.23
49801;BME280;35698;50.232;30.540;2022-09-29T06:01:21;99755.00;;;17.77;53.17
49801;BME280;35698;50.232;30.540;2022-09-29T06:02:24;99761.48;;;17.74;53.09
49801;BME280;35698;50.232;30.540;2022-09-29T06:03:36;99756.66;;;17.87;53.22
49801;BME280;35698;50.232;30.540;2022-09-29T06:04:49;99758.08;;;17.82;53.13
49801;BME280;35698;50.232;30.540;2022-09-29T06:06:08;99759.26;;;18.07;52.99
49801;BME280;35698;50.232;30.540;2022-09-29T06:07:12;99757.72;;;18.04;52.80
49801;BME280;35698;50.232;30.540;2022-09-29T06:08:20;99761.49;;;18.11;52.51
49801;BME280;35698;50.232;30.540;2022-09-29T06:09:24;99761.42;;;18.21;52.64
49801;BME280;35698;50.232;30.540;2022-09-29T06:10:35;99764.84;;;18.41;52.29
49801;BME280;35698;50.232;30.540;2022-09-29T06:11:38;99762.06;;;18.32;52.31
49801;BME280;35698;50.232;30.540;2022-09-29T06:12:49;99759.28;;;18.52;52.18
49801;BME280;35698;50.232;30.540;2022-09-29T06:13:54;99758.34;;;18.43;52.10
49801;BME280;35698;50.232;30.540;2022-09-29T06:15:08;99762.92;;;18.60;52.17
49801;BME280;35698;50.232;30.540;2022-09-29T06:16:14;99756.31;;;18.55;52.29
49801;BME280;35698;50.232;30.540;2022-09-29T06:17:25;99755.22;;;18.75;52.25
49801;BME280;35698;50.232;30.540;2022-09-29T06:18:29;99751.32;;;18.70;52.08
49801;BME280;35698;50.232;30.540;2022-09-29T06:19:32;99761.57;;;18.74;51.97
49801;BME280;35698;50.232;30.540;2022-09-29T06:20:43;99754.01;;;18.87;51.91
49801;BME280;35698;50.232;30.540;2022-09-29T06:21:47;99754.92;;;18.78;52.17
49801;BME280;35698;50.232;30.540;2022-09-29T06:22:58;99757.45;;;18.97;52.21
49801;BME280;35698;50.232;30.540;2022-09-29T06:24:02;99753.70;;;18.90;52.14
49801;BME280;35698;50.232;30.540;2022-09-29T06:25:14;99746.48;;;19.09;52.22
49801;BME280;35698;50.232;30.540;2022-09-29T06:26:18;99744.61;;;19.01;52.27
49801;BME280;35698;50.232;30.540;2022-09-29T06:27:29;99744.72;;;19.17;52.34
49801;BME280;35698;50.232;30.540;2022-09-29T06:28:33;99744.03;;;19.15;52.45
49801;BME280;35698;50.232;30.540;2022-09-29T06:29:44;99745.53;;;19.36;52.35
49801;BME280;35698;50.232;30.540;2022-09-29T06:30:48;99741.64;;;19.30;52.05
49801;BME280;35698;50.232;30.540;2022-09-29T06:31:51;99744.54;;;19.37;51.96
49801;BME280;35698;50.232;30.540;2022-09-29T06:32:55;99746.44;;;19.44;51.89
49801;BME280;35698;50.232;30.540;2022-09-29T06:34:00;99743.85;;;19.52;51.62
49801;BME280;35698;50.232;30.540;2022-09-29T06:35:11;99756.05;;;19.73;51.48
49801;BME280;35698;50.232;30.540;2022-09-29T06:36:21;99751.84;;;19.70;51.55
49801;BME280;35698;50.232;30.540;2022-09-29T06:37:33;99753.30;;;19.90;51.27
49801;BME280;35698;50.232;30.540;2022-09-29T06:38:36;99759.66;;;19.89;51.07
49801;BME280;35698;50.232;30.540;2022-09-29T06:39:47;99759.56;;;20.07;50.91
49801;BME280;35698;50.232;30.540;2022-09-29T06:40:51;99762.72;;;20.03;50.79